Time;durP1;ratioP1;P1;durP2;ratioP2;P2;SDS_P1;SDS_P2;PMS_P1;PMS_P2;Temp;Humidity;BMP_temperature;BMP_pressure;BME280_temperature;BME280_humidity;BME280_pressure;Samples;Min_cycle;Max_cycle;Signal;HPM_P1;HPM_P2
2021/07/24 00:02:25;;;;;;;;;19.25;18.25;;;;;28.10;38.84;100330.09;5019813;28;45772;-91
2021/07/24 00:04:50;;;;;;;;;18.25;17.00;;;;;28.07;38.67;100319.53;5022856;28;45312;-77
2021/07/24 00:07:16;;;;;;;;;19.75;18.00;;;;;28.05;38.75;100323.19;5025660;28;45234;-86
2021/07/24 00:09:41;;;;;;;;;20.25;20.25;;;;;28.02;39.13;100324.16;5024319;28;45249;-86
2021/07/24 00:12:07;;;;;;;;;21.00;19.25;;;;;28.02;38.94;100324.16;5021412;28;45419;-90
2021/07/24 00:14:33;;;;;;;;;18.00;18.00;;;;;27.98;38.90;100322.53;5019764;28;45400;-92
2021/07/24 00:16:59;;;;;;;;;21.75;19.25;;;;;27.91;39.66;100321.88;5020527;28;45390;-83
2021/07/24 00:19:24;;;;;;;;;15.75;15.75;;;;;27.89;39.29;100318.38;5018085;28;45953;-86
2021/07/24 00:21:50;;;;;;;;;17.00;17.00;;;;;27.83;39.31;100315.97;5018931;28;45265;-80
2021/07/24 00:24:16;;;;;;;;;19.25;18.25;;;;;27.80;39.16;100308.97;5019083;28;45418;-84
2021/07/24 00:26:42;;;;;;;;;22.75;18.25;;;;;27.77;39.19;100311.72;5019025;28;45435;-86
2021/07/24 00:29:08;;;;;;;;;18.25;17.00;;;;;27.76;39.67;100306.44;5016518;28;45707;-86
2021/07/24 00:31:35;;;;;;;;;20.00;17.75;;;;;27.71;39.62;100297.75;5019749;28;45902;-81
2021/07/24 00:34:01;;;;;;;;;18.00;15.50;;;;;27.67;39.76;100310.31;5023103;28;45245;-87
2021/07/24 00:36:27;;;;;;;;;21.75;20.25;;;;;27.63;39.94;100312.22;5028758;28;45188;-79
2021/07/24 00:38:52;;;;;;;;;16.50;16.50;;;;;27.60;39.62;100306.97;5030381;28;46114;-77
2021/07/24 00:41:35;;;;;;;;;18.00;17.00;;;;;27.58;39.14;100307.97;5025617;28;45342;-82
2021/07/24 00:44:01;;;;;;;;;17.00;15.50;;;;;27.56;39.38;100309.81;5018689;28;45358;-80
2021/07/24 00:46:30;;;;;;;;;17.75;17.25;;;;;27.55;38.93;100311.56;5020039;28;45296;-80
2021/07/24 00:48:57;;;;;;;;;16.50;14.50;;;;;27.55;39.04;100311.56;5021211;28;46059;-81
2021/07/24 00:51:28;;;;;;;;;15.75;14.00;;;;;27.55;38.83;100316.03;5018551;28;45742;-83
2021/07/24 00:53:54;;;;;;;;;16.75;12.50;;;;;27.55;38.50;100329.34;5017773;28;45394;-86
2021/07/24 00:56:21;;;;;;;;;15.25;12.25;;;;;27.56;38.47;100334.59;5020434;28;45468;-87
2021/07/24 00:58:47;;;;;;;;;17.00;13.00;;;;;27.57;38.88;100344.31;5024141;28;45420;-79
2021/07/24 01:01:13;;;;;;;;;16.25;14.25;;;;;27.57;38.62;100344.31;5020319;28;45371;-84
2021/07/24 01:03:38;;;;;;;;;14.25;14.25;;;;;27.57;38.59;100346.97;5019664;28;45321;-79
2021/07/24 01:06:04;;;;;;;;;14.00;13.00;;;;;27.55;38.45;100316.91;5021928;28;45500;-86
2021/07/24 01:08:36;;;;;;;;;17.00;14.00;;;;;27.56;38.62;100315.13;5019835;28;45446;-87
2021/07/24 01:11:04;;;;;;;;;17.25;16.50;;;;;27.58;38.55;100305.31;5019435;28;45471;-89
2021/07/24 01:13:30;;;;;;;;;14.25;12.25;;;;;27.59;38.56;100299.94;5018997;28;45323;-91
2021/07/24 01:15:56;;;;;;;;;15.75;15.00;;;;;27.58;38.41;100302.66;5019019;28;45518;-87
2021/07/24 01:18:22;;;;;;;;;15.25;12.00;;;;;27.58;38.67;100308.81;5018645;28;45261;-84
2021/07/24 01:20:51;;;;;;;;;15.25;14.00;;;;;27.58;39.03;100310.63;5018024;28;46092;-93
2021/07/24 01:23:18;;;;;;;;;15.75;14.75;;;;;27.58;38.72;100314.13;5021826;28;45408;-89
2021/07/24 01:25:48;;;;;;;;;13.00;12.00;;;;;27.53;38.92;100309.91;5024762;28;45316;-84
2021/07/24 01:28:32;;;;;;;;;16.75;14.25;;;;;27.49;38.81;100306.47;5019644;28;46275;-86
2021/07/24 01:30:59;;;;;;;;;18.50;17.50;;;;;27.46;38.89;100306.56;5017856;28;45557;-81
2021/07/24 01:33:25;;;;;;;;;16.75;14.00;;;;;27.41;40.25;100333.28;5017692;28;45426;-86
2021/07/24 01:35:52;;;;;;;;;21.75;17.50;;;;;27.29;40.14;100334.56;5018045;28;45569;-86
2021/07/24 01:38:18;;;;;;;;;14.75;13.75;;;;;27.18;41.89;100342.03;5018784;28;46508;-76
2021/07/24 01:40:44;;;;;;;;;15.00;14.75;;;;;27.02;42.35;100339.84;5018362;28;45646;-82
2021/07/24 01:43:10;;;;;;;;;11.75;11.50;;;;;26.89;43.95;100343.78;5025058;28;45442;-80
2021/07/24 01:45:37;;;;;;;;;10.50;10.25;;;;;26.75;45.09;100341.53;5025551;28;45244;-80
2021/07/24 01:48:08;;;;;;;;;9.50;8.50;;;;;26.58;46.49;100348.22;5021273;28;46464;-86
2021/07/24 01:53:20;;;;;;;;;10.75;9.00;;;;;26.37;46.92;100348.84;5022690;28;45324;-92
2021/07/24 01:55:56;;;;;;;;;8.25;6.75;;;;;26.25;48.88;100381.88;5019092;28;45513;-92
2021/07/24 01:58:34;;;;;;;;;11.50;9.50;;;;;26.15;48.02;100368.00;5018299;28;45321;-93
2021/07/24 02:01:05;;;;;;;;;9.00;6.75;;;;;26.07;48.35;100356.72;5018916;28;45471;-93
2021/07/24 02:03:43;;;;;;;;;8.00;7.00;;;;;25.99;49.73;100378.13;5019326;28;45238;-93
2021/07/24 02:06:13;;;;;;;;;8.00;8.00;;;;;25.91;49.12;100375.66;5032150;28;45434;-77
2021/07/24 02:08:45;;;;;;;;;10.75;9.50;;;;;25.86;49.52;100387.31;5034913;28;46238;-83
2021/07/24 02:11:12;;;;;;;;;9.25;7.75;;;;;25.78;49.62;100372.47;5034233;28;45355;-82
2021/07/24 02:13:38;;;;;;;;;7.00;6.00;;;;;25.74;50.06;100362.84;5036415;28;45368;-76
2021/07/24 02:16:06;;;;;;;;;8.00;7.00;;;;;25.69;50.00;100375.38;5040335;28;45645;-76
2021/07/24 02:18:32;;;;;;;;;8.00;8.00;;;;;25.61;50.89;100374.66;5040407;28;45487;-76
2021/07/24 02:21:00;;;;;;;;;11.00;10.00;;;;;25.57;51.48;100351.81;5038825;28;45361;-81
2021/07/24 02:23:26;;;;;;;;;13.00;9.50;;;;;25.51;50.83;100358.13;5033266;28;45325;-81
2021/07/24 02:25:51;;;;;;;;;9.50;8.25;;;;;25.52;50.75;100359.88;5037620;28;44758;-83
2021/07/24 02:28:17;;;;;;;;;11.25;10.50;;;;;25.49;50.79;100342.25;5038792;28;45316;-77
2021/07/24 02:30:43;;;;;;;;;10.75;8.75;;;;;25.52;50.29;100374.88;5037928;28;44807;-83
2021/07/24 02:33:08;;;;;;;;;11.75;10.75;;;;;25.50;50.08;100373.16;5040528;28;45145;-81
2021/07/24 02:35:34;;;;;;;;;7.75;7.75;;;;;25.51;50.64;100374.03;5038777;28;45248;-82
2021/07/24 02:38:00;;;;;;;;;6.50;6.50;;;;;25.50;50.50;100367.84;5036777;28;45348;-85
2021/07/24 02:40:26;;;;;;;;;7.00;7.00;;;;;25.52;50.21;100364.28;5036473;28;45144;-78
2021/07/24 02:42:51;;;;;;;;;8.25;7.00;;;;;25.46;50.50;100367.97;5040940;28;45197;-80
2021/07/24 02:45:17;;;;;;;;;6.00;6.00;;;;;25.47;50.22;100367.94;5040977;28;45362;-80
2021/07/24 02:47:43;;;;;;;;;11.25;7.75;;;;;25.46;50.38;100368.84;5040634;28;45148;-77
2021/07/24 02:50:09;;;;;;;;;5.75;5.75;;;;;25.42;49.70;100368.97;5037595;28;44731;-78
2021/07/24 02:52:34;;;;;;;;;6.00;6.00;;;;;25.37;49.93;100384.94;5031287;28;45339;-82
2021/07/24 02:55:00;;;;;;;;;8.50;7.00;;;;;25.31;50.42;100378.00;5029036;28;45719;-87
2021/07/24 02:57:26;;;;;;;;;8.50;8.25;;;;;25.24;50.26;100364.94;5026462;28;46412;-80
2021/07/24 02:59:51;;;;;;;;;5.25;5.25;;;;;25.22;49.92;100358.78;5038183;28;44801;-76
2021/07/24 03:02:18;;;;;;;;;6.50;6.50;;;;;25.23;50.18;100360.53;5034261;28;45319;-83
2021/07/24 03:04:44;;;;;;;;;4.25;4.25;;;;;25.22;50.95;100357.00;5023967;28;45229;-78
2021/07/24 03:07:10;;;;;;;;;6.50;4.00;;;;;25.16;49.89;100354.50;5023259;28;46089;-78
2021/07/24 03:09:36;;;;;;;;;7.00;6.00;;;;;25.10;50.04;100354.66;5020095;28;45308;-80
2021/07/24 03:12:03;;;;;;;;;4.50;4.50;;;;;25.01;50.19;100356.59;5019331;28;45320;-80
2021/07/24 03:14:29;;;;;;;;;5.25;4.25;;;;;24.96;50.42;100368.19;5018872;28;45519;-77
2021/07/24 03:16:54;;;;;;;;;6.75;6.00;;;;;24.92;50.37;100383.28;5017108;28;47923;-78
2021/07/24 03:19:20;;;;;;;;;3.75;3.75;;;;;24.86;49.68;100389.56;5019743;28;45353;-90
2021/07/24 03:21:45;;;;;;;;;3.75;2.50;;;;;24.80;50.20;100392.38;5021057;28;45884;-92
2021/07/24 03:24:11;;;;;;;;;7.25;5.50;;;;;24.74;49.99;100389.84;5021730;28;45582;-93
2021/07/24 03:26:39;;;;;;;;;6.00;6.00;;;;;24.67;50.38;100386.44;5032723;28;46093;-80
2021/07/24 03:29:05;;;;;;;;;4.00;4.00;;;;;24.64;50.35;100397.06;5031363;28;45619;-93
2021/07/24 03:31:31;;;;;;;;;5.00;3.75;;;;;24.60;50.47;100391.88;5027946;28;45209;-90
2021/07/24 03:33:56;;;;;;;;;7.75;5.25;;;;;24.58;50.88;100408.66;5024431;28;45514;-90
2021/07/24 03:36:22;;;;;;;;;4.50;4.50;;;;;24.58;50.58;100406.00;5022561;28;45924;-87
2021/07/24 03:38:48;;;;;;;;;5.50;4.00;;;;;24.56;51.20;100417.53;5022598;28;45382;-85
2021/07/24 03:41:13;;;;;;;;;4.00;3.25;;;;;24.49;50.73;100414.13;5021691;28;45344;-86
2021/07/24 03:43:41;;;;;;;;;4.00;4.00;;;;;24.41;50.84;100402.81;5023764;28;45335;-90
2021/07/24 03:46:19;;;;;;;;;6.00;4.75;;;;;24.39;51.22;100420.50;5022906;28;45488;-89
2021/07/24 03:48:45;;;;;;;;;4.25;3.50;;;;;24.35;51.10;100418.81;5021823;28;45153;-89
2021/07/24 03:51:12;;;;;;;;;5.75;5.50;;;;;24.35;51.38;100429.41;5031395;28;45241;-91
2021/07/24 03:53:41;;;;;;;;;6.00;4.50;;;;;24.31;50.72;100444.47;5040940;28;45452;-77
2021/07/24 03:56:18;;;;;;;;;4.00;4.00;;;;;24.29;50.99;100451.53;5042725;28;44977;-90
2021/07/24 03:58:45;;;;;;;;;4.00;4.00;;;;;24.22;50.64;100457.84;5034558;28;45350;-87
2021/07/24 04:01:11;;;;;;;;;6.25;4.00;;;;;24.16;51.15;100473.81;5025190;28;45357;-92
2021/07/24 04:03:37;;;;;;;;;5.00;4.25;;;;;24.13;51.20;100479.19;5026322;28;45263;-89
2021/07/24 04:06:03;;;;;;;;;5.75;5.75;;;;;24.09;51.09;100480.97;5022733;28;45672;-77
2021/07/24 04:08:31;;;;;;;;;4.50;4.50;;;;;24.04;51.03;100483.69;5020292;28;45718;-89
2021/07/24 04:10:56;;;;;;;;;5.25;4.75;;;;;23.99;50.81;100482.91;5019513;28;45324;-91
2021/07/24 04:13:22;;;;;;;;;3.50;3.50;;;;;23.94;50.63;100495.28;5019261;28;45490;-91
2021/07/24 04:15:48;;;;;;;;;4.25;4.00;;;;;23.90;51.01;100493.63;5019197;28;45478;-90
2021/07/24 04:18:13;;;;;;;;;5.00;5.00;;;;;23.88;51.08;100508.63;5017845;28;45537;-86
2021/07/24 04:20:41;;;;;;;;;5.00;4.00;;;;;23.85;51.08;100493.69;5018769;28;45185;-93
2021/07/24 04:23:07;;;;;;;;;5.50;5.00;;;;;23.81;51.07;100499.91;5023393;28;45493;-84
2021/07/24 04:25:33;;;;;;;;;4.00;4.00;;;;;23.78;51.55;100516.69;5020946;28;45617;-78
2021/07/24 04:27:58;;;;;;;;;5.00;3.50;;;;;23.78;51.56;100523.72;5018447;28;45313;-77
2021/07/24 04:30:24;;;;;;;;;7.25;6.00;;;;;23.80;51.72;100521.94;5016341;28;45411;-76
2021/07/24 04:32:50;;;;;;;;;9.50;7.50;;;;;23.80;51.70;100509.63;5017948;28;45327;-77
2021/07/24 04:35:15;;;;;;;;;5.00;4.00;;;;;23.83;51.41;100513.97;5022070;28;45414;-90
2021/07/24 04:37:41;;;;;;;;;6.00;6.00;;;;;23.87;51.71;100528.88;5029026;28;45543;-87
2021/07/24 04:40:07;;;;;;;;;5.00;5.00;;;;;23.87;51.58;100517.44;5023567;28;45465;-88
2021/07/24 04:42:33;;;;;;;;;6.25;5.00;;;;;23.84;51.82;100514.84;5019668;28;45527;-94
2021/07/24 04:44:59;;;;;;;;;6.00;5.75;;;;;23.78;51.66;100508.75;5020696;28;45417;-92
2021/07/24 04:47:25;;;;;;;;;7.50;6.00;;;;;23.73;51.89;100515.88;5025826;28;45682;-96
2021/07/24 04:49:53;;;;;;;;;7.25;5.50;;;;;23.63;51.85;100514.25;5043346;28;45473;-89
2021/07/24 04:52:21;;;;;;;;;7.00;4.75;;;;;23.55;52.24;100519.66;5022688;28;45391;-87
2021/07/24 04:54:48;;;;;;;;;5.50;5.25;;;;;23.50;52.26;100527.63;5017698;28;45467;-79
2021/07/24 04:57:15;;;;;;;;;6.25;5.25;;;;;23.43;52.19;100514.56;5019151;28;45177;-87
2021/07/24 04:59:48;;;;;;;;;6.50;5.00;;;;;23.40;52.92;100528.66;5018021;28;45426;-82
2021/07/24 05:02:19;;;;;;;;;8.25;6.25;;;;;23.39;53.12;100528.69;5026817;28;45165;-91
2021/07/24 05:04:46;;;;;;;;;5.50;5.00;;;;;23.37;52.98;100534.00;5023379;28;46211;-87
2021/07/24 05:07:13;;;;;;;;;6.25;5.00;;;;;23.32;53.09;100530.53;5021291;28;45421;-91
2021/07/24 05:09:40;;;;;;;;;5.50;4.50;;;;;23.28;52.97;100532.34;5027792;28;45339;-87
2021/07/24 05:12:06;;;;;;;;;5.50;4.75;;;;;23.22;53.16;100537.69;5041927;28;44857;-78
2021/07/24 05:14:31;;;;;;;;;5.75;5.25;;;;;23.20;53.07;100544.78;5034836;28;45295;-89
2021/07/24 05:17:23;;;;;;;;;5.25;5.25;;;;;23.18;53.55;100531.53;5028753;28;45297;-84
2021/07/24 05:19:49;;;;;;;;;8.25;6.25;;;;;23.17;53.16;100542.97;5024323;28;45284;-84
2021/07/24 05:22:15;;;;;;;;;7.00;5.50;;;;;23.18;53.48;100542.09;5023545;28;45521;-85
2021/07/24 05:24:45;;;;;;;;;5.25;5.25;;;;;23.22;53.64;100539.47;5023831;28;45325;-84
2021/07/24 05:27:12;;;;;;;;;6.00;6.00;;;;;23.27;53.08;100549.06;5028968;28;45422;-82
2021/07/24 05:29:37;;;;;;;;;6.25;6.00;;;;;23.32;53.03;100546.38;5031038;28;45357;-87
2021/07/24 05:32:04;;;;;;;;;6.25;5.00;;;;;23.33;53.08;100554.28;5030745;28;45229;-76
2021/07/24 05:34:29;;;;;;;;;8.75;7.25;;;;;23.33;52.88;100551.63;5038630;28;47461;-77
2021/07/24 05:36:55;;;;;;;;;5.00;4.50;;;;;23.30;53.03;100548.16;5040396;28;45221;-76
2021/07/24 05:39:20;;;;;;;;;5.00;4.50;;;;;23.24;52.94;100550.88;5034022;28;45228;-91
2021/07/24 05:41:46;;;;;;;;;5.00;5.00;;;;;23.18;52.65;100560.59;5035439;28;45332;-81
2021/07/24 05:44:13;;;;;;;;;4.25;4.25;;;;;23.14;52.67;100552.72;5027527;28;46246;-81
2021/07/24 05:46:39;;;;;;;;;5.75;3.50;;;;;23.10;52.75;100549.25;5025140;28;45664;-88
2021/07/24 05:49:06;;;;;;;;;5.50;5.50;;;;;23.02;52.56;100551.09;5021156;28;45406;-85
2021/07/24 05:51:31;;;;;;;;;5.50;5.00;;;;;22.97;52.60;100548.50;5022362;28;45547;-92
2021/07/24 05:53:57;;;;;;;;;7.00;5.50;;;;;22.86;52.64;100553.88;5017993;28;46952;-81
2021/07/24 05:56:23;;;;;;;;;6.00;4.00;;;;;22.81;53.05;100560.09;5021263;28;45933;-77
2021/07/24 05:58:49;;;;;;;;;6.50;6.50;;;;;22.79;52.47;100554.84;5023639;28;45218;-78
2021/07/24 06:01:15;;;;;;;;;5.75;5.75;;;;;22.77;53.07;100553.97;5020700;28;45418;-85
2021/07/24 06:03:41;;;;;;;;;6.00;5.00;;;;;22.77;52.62;100553.13;5019269;28;45241;-80
2021/07/24 06:06:07;;;;;;;;;8.50;5.00;;;;;22.78;52.69;100549.59;5036695;28;45362;-86
2021/07/24 06:08:33;;;;;;;;;6.50;4.25;;;;;22.82;52.94;100553.94;5025316;28;45284;-93
2021/07/24 06:11:04;;;;;;;;;7.00;6.00;;;;;22.85;53.03;100557.41;5025829;28;45427;-89
2021/07/24 06:13:31;;;;;;;;;8.50;4.75;;;;;22.87;52.98;100552.16;5018857;28;46910;-89
2021/07/24 06:16:00;;;;;;;;;6.00;5.00;;;;;22.87;52.98;100554.78;5023949;28;45591;-95
2021/07/24 06:18:26;;;;;;;;;6.00;5.25;;;;;22.88;52.95;100544.19;5031709;28;45320;-92
2021/07/24 06:20:52;;;;;;;;;6.50;6.00;;;;;22.86;52.86;100539.84;5035844;28;45518;-92
2021/07/24 06:23:19;;;;;;;;;8.00;6.25;;;;;22.87;53.26;100545.09;5030986;28;45383;-96
2021/07/24 06:25:46;;;;;;;;;6.50;6.00;;;;;22.87;53.14;100550.38;5030741;28;44959;-95
2021/07/24 06:28:12;;;;;;;;;6.25;6.25;;;;;22.89;53.13;100534.53;5032797;28;44764;-95
2021/07/24 06:30:38;;;;;;;;;5.75;5.25;;;;;22.92;53.06;100544.16;5027025;28;45162;-91
2021/07/24 06:33:05;;;;;;;;;7.75;6.25;;;;;22.96;52.72;100543.22;5026095;28;45468;-93
2021/07/24 06:35:31;;;;;;;;;4.00;3.00;;;;;22.99;52.93;100544.09;5030207;28;45232;-93
2021/07/24 06:37:56;;;;;;;;;5.50;5.25;;;;;23.01;52.38;100531.72;5024748;28;45462;-92
2021/07/24 06:40:22;;;;;;;;;6.00;5.75;;;;;23.03;52.62;100535.22;5022062;28;45330;-93
2021/07/24 06:42:48;;;;;;;;;4.50;3.25;;;;;23.03;52.72;100537.00;5019924;28;46185;-89
2021/07/24 06:45:14;;;;;;;;;6.25;5.25;;;;;23.00;52.34;100542.31;5019317;28;45281;-93
2021/07/24 06:47:39;;;;;;;;;8.25;5.50;;;;;22.93;52.38;100538.88;5018569;28;45236;-86
2021/07/24 06:50:05;;;;;;;;;7.50;5.75;;;;;22.92;52.59;100533.59;5019218;28;45645;-93
2021/07/24 06:52:31;;;;;;;;;5.25;5.25;;;;;22.91;52.08;100538.00;5027486;28;46404;-85
2021/07/24 06:54:57;;;;;;;;;6.25;4.75;;;;;22.90;51.97;100538.88;5038153;28;44754;-78
2021/07/24 06:57:22;;;;;;;;;4.00;3.75;;;;;22.90;52.33;100540.66;5038577;28;44718;-77
2021/07/24 06:59:48;;;;;;;;;7.25;4.25;;;;;22.90;51.89;100544.16;5038151;28;45004;-81
2021/07/24 07:02:13;;;;;;;;;7.00;6.00;;;;;22.91;51.66;100548.56;5034594;28;45403;-85
2021/07/24 07:04:39;;;;;;;;;3.25;3.25;;;;;22.87;51.72;100552.16;5038711;28;44816;-77
2021/07/24 07:07:06;;;;;;;;;5.50;4.75;;;;;22.85;51.63;100546.84;5032811;28;45375;-78
2021/07/24 07:09:33;;;;;;;;;4.00;3.25;;;;;22.82;51.80;100549.56;5029856;28;45280;-77
2021/07/24 07:11:59;;;;;;;;;6.00;4.25;;;;;22.79;52.00;100551.31;5027148;28;45745;-77
2021/07/24 07:14:26;;;;;;;;;5.00;3.25;;;;;22.77;52.04;100551.34;5031583;28;45158;-76
2021/07/24 07:16:52;;;;;;;;;4.00;4.00;;;;;22.80;51.77;100546.03;5023766;28;45238;-80
2021/07/24 07:19:18;;;;;;;;;5.75;4.00;;;;;22.80;51.91;100546.03;5023656;28;45166;-90
2021/07/24 07:21:44;;;;;;;;;3.50;3.50;;;;;22.83;51.76;100566.25;5023168;28;45906;-87
2021/07/24 07:24:10;;;;;;;;;4.50;4.50;;;;;22.81;51.46;100546.91;5028609;28;45247;-89
2021/07/24 07:26:36;;;;;;;;;6.50;5.00;;;;;22.83;51.76;100553.94;5026460;28;45379;-93
2021/07/24 07:29:04;;;;;;;;;8.00;5.00;;;;;22.87;51.57;100552.16;5035206;28;44962;-82
2021/07/24 07:31:31;;;;;;;;;5.00;4.00;;;;;22.90;51.53;100562.66;5037265;28;45236;-88
2021/07/24 07:33:57;;;;;;;;;6.00;5.00;;;;;22.90;51.25;100548.59;5039614;28;45599;-93
2021/07/24 07:36:22;;;;;;;;;4.25;4.25;;;;;22.92;51.60;100555.59;5028328;28;45166;-92
2021/07/24 07:38:48;;;;;;;;;4.00;3.50;;;;;22.93;51.19;100559.13;5028140;28;45075;-88
2021/07/24 07:41:14;;;;;;;;;3.50;3.25;;;;;22.96;51.17;100569.63;5023971;28;45554;-86
2021/07/24 07:43:40;;;;;;;;;3.00;3.00;;;;;22.98;51.20;100574.03;5020616;28;45989;-83
2021/07/24 07:46:06;;;;;;;;;4.00;4.00;;;;;22.98;51.35;100574.03;5022350;28;45396;-79
2021/07/24 07:48:36;;;;;;;;;4.50;4.00;;;;;22.98;51.17;100566.09;5020770;28;45518;-80
2021/07/24 07:51:03;;;;;;;;;4.00;3.00;;;;;22.99;51.34;100567.84;5020068;28;45217;-81
2021/07/24 07:53:29;;;;;;;;;7.50;5.75;;;;;23.02;51.14;100567.81;5023168;28;45770;-77
2021/07/24 07:55:55;;;;;;;;;7.25;4.25;;;;;23.06;51.11;100568.63;5021082;28;45424;-84
2021/07/24 07:58:20;;;;;;;;;4.00;3.00;;;;;23.08;50.99;100566.00;5021897;28;45269;-81
2021/07/24 08:00:46;;;;;;;;;5.25;4.00;;;;;23.08;50.86;100560.72;5020501;28;45919;-79
2021/07/24 08:03:11;;;;;;;;;5.75;3.50;;;;;23.14;51.06;100563.28;5019373;28;45433;-76
2021/07/24 08:05:37;;;;;;;;;3.00;3.00;;;;;23.18;50.94;100565.88;5018422;28;45467;-79
2021/07/24 08:08:03;;;;;;;;;7.00;4.00;;;;;23.21;50.79;100564.13;5017681;28;45481;-76
2021/07/24 08:10:29;;;;;;;;;4.25;4.00;;;;;23.24;50.52;100566.72;5015329;28;46735;-78
2021/07/24 08:12:54;;;;;;;;;3.00;3.00;;;;;23.28;50.71;100560.50;5018181;28;45249;-79
2021/07/24 08:15:20;;;;;;;;;4.25;2.75;;;;;23.31;50.53;100558.72;5023941;28;45240;-90
2021/07/24 08:17:46;;;;;;;;;4.25;4.25;;;;;23.31;50.55;100563.13;5030910;28;45154;-83
2021/07/24 08:20:12;;;;;;;;;7.00;4.00;;;;;23.31;50.15;100561.38;5029383;28;45749;-80
2021/07/24 08:22:38;;;;;;;;;3.75;3.75;;;;;23.32;50.40;100557.81;5025015;28;45348;-89
2021/07/24 08:25:05;;;;;;;;;4.00;3.50;;;;;23.35;50.10;100549.00;5026082;28;45467;-89
2021/07/24 08:27:34;;;;;;;;;4.00;4.00;;;;;23.40;50.33;100549.78;5022954;28;45506;-84
2021/07/24 08:30:00;;;;;;;;;7.00;4.00;;;;;23.45;49.99;100550.63;5022511;28;46173;-87
2021/07/24 08:32:26;;;;;;;;;6.00;4.00;;;;;23.50;49.98;100559.34;5024247;28;45237;-90
2021/07/24 08:34:52;;;;;;;;;3.25;2.75;;;;;23.54;49.92;100556.66;5020772;28;45250;-84
2021/07/24 08:37:19;;;;;;;;;3.25;2.75;;;;;23.54;50.02;100552.25;5020371;28;45305;-81
2021/07/24 08:39:45;;;;;;;;;3.25;3.25;;;;;23.52;48.96;100553.16;5022634;28;46274;-79
2021/07/24 08:42:29;;;;;;;;;4.00;2.50;;;;;23.49;49.27;100549.66;5026245;28;45320;-76
2021/07/24 08:44:55;;;;;;;;;3.00;3.00;;;;;23.50;49.41;100546.13;5022813;28;45736;-82
2021/07/24 08:47:21;;;;;;;;;4.25;3.25;;;;;23.50;49.29;100540.84;5020833;28;45473;-86
2021/07/24 08:49:47;;;;;;;;;3.50;3.25;;;;;23.50;49.24;100538.22;5023376;28;45380;-77
2021/07/24 08:52:18;;;;;;;;;3.25;3.00;;;;;23.52;49.21;100529.38;5028437;28;45371;-76
2021/07/24 08:54:44;;;;;;;;;6.00;3.50;;;;;23.54;49.67;100535.53;5028089;28;45415;-79
2021/07/24 08:57:15;;;;;;;;;5.25;4.25;;;;;23.60;49.14;100535.44;5023927;28;45612;-79
2021/07/24 08:59:43;;;;;;;;;3.25;3.25;;;;;23.61;49.20;100539.81;5018250;28;46607;-80
2021/07/24 09:02:10;;;;;;;;;4.75;3.50;;;;;23.67;49.33;100538.88;5016856;28;45629;-76
2021/07/24 09:04:36;;;;;;;;;5.50;4.00;;;;;23.70;49.05;100546.75;5016667;28;45408;-79
2021/07/24 09:07:06;;;;;;;;;4.00;4.00;;;;;23.71;49.17;100543.22;5017774;28;45606;-79
2021/07/24 09:09:32;;;;;;;;;3.75;3.00;;;;;23.70;49.23;100545.00;5018735;28;45403;-79
2021/07/24 09:11:58;;;;;;;;;3.00;2.75;;;;;23.73;49.35;100533.53;5017819;28;45320;-81
2021/07/24 09:14:24;;;;;;;;;3.25;3.25;;;;;23.76;49.48;100530.81;5021055;28;45375;-91
2021/07/24 09:16:50;;;;;;;;;5.00;3.00;;;;;23.81;49.47;100540.41;5023590;28;45447;-82
2021/07/24 09:19:18;;;;;;;;;7.00;5.75;;;;;23.87;49.00;100534.16;5025405;28;45382;-80
2021/07/24 09:21:43;;;;;;;;;4.75;2.75;;;;;23.93;47.92;100534.09;5021334;28;45453;-83
2021/07/24 09:24:21;;;;;;;;;3.50;3.50;;;;;23.96;48.29;100535.84;5036047;28;45383;-79
2021/07/24 09:26:46;;;;;;;;;2.25;2.00;;;;;23.98;48.31;100549.03;5019793;28;45327;-80
2021/07/24 09:29:15;;;;;;;;;4.00;3.00;;;;;24.01;47.57;100538.41;5020953;28;45442;-76
2021/07/24 09:31:41;;;;;;;;;3.00;3.00;;;;;24.03;47.65;100548.06;5018092;28;45344;-76
2021/07/24 09:34:10;;;;;;;;;3.75;2.25;;;;;24.04;47.73;100541.88;5019899;28;45840;-83
2021/07/24 09:36:36;;;;;;;;;5.25;4.25;;;;;24.10;47.74;100528.56;5021369;28;45470;-80
2021/07/24 09:39:18;;;;;;;;;4.25;3.50;;;;;24.19;47.81;100539.91;5020649;28;46209;-89
2021/07/24 09:41:46;;;;;;;;;7.00;4.25;;;;;24.21;48.04;100549.56;5019574;28;45741;-91
2021/07/24 09:44:26;;;;;;;;;4.50;3.25;;;;;24.24;48.05;100540.72;5026276;28;45345;-88
2021/07/24 09:46:56;;;;;;;;;5.00;4.50;;;;;24.32;47.42;100540.56;5027781;28;45316;-81
2021/07/24 09:49:33;;;;;;;;;4.00;3.75;;;;;24.34;46.85;100546.72;5022805;28;45472;-80
2021/07/24 09:52:13;;;;;;;;;3.25;2.00;;;;;24.42;46.23;100552.75;5022234;28;45736;-84
2021/07/24 09:54:39;;;;;;;;;5.25;3.50;;;;;24.49;45.72;100559.69;5024746;28;45475;-85
2021/07/24 09:57:05;;;;;;;;;4.25;2.75;;;;;24.56;46.02;100552.53;5023308;28;45284;-90
2021/07/24 09:59:32;;;;;;;;;2.50;2.50;;;;;24.64;45.88;100557.66;5017813;28;45264;-89
2021/07/24 10:02:03;;;;;;;;;4.00;2.75;;;;;24.70;45.39;100555.81;5019634;28;45665;-80
2021/07/24 10:04:40;;;;;;;;;4.00;4.00;;;;;24.76;45.53;100560.13;5023856;28;45245;-82
2021/07/24 10:07:09;;;;;;;;;3.75;3.50;;;;;24.80;45.00;100550.34;5018256;28;45427;-79
2021/07/24 10:09:45;;;;;;;;;5.00;4.00;;;;;24.82;45.42;100554.72;5020364;28;45516;-77
2021/07/24 10:12:15;;;;;;;;;2.75;2.75;;;;;24.82;45.05;100560.03;5022577;28;45332;-80
2021/07/24 10:14:42;;;;;;;;;4.00;3.00;;;;;24.81;45.16;100566.22;5024768;28;45324;-77
2021/07/24 10:17:08;;;;;;;;;3.50;3.00;;;;;24.81;45.55;100563.56;5019525;28;45661;-88
2021/07/24 10:19:34;;;;;;;;;6.25;5.00;;;;;24.85;45.44;100557.31;5020015;28;45452;-85
2021/07/24 10:22:01;;;;;;;;;4.00;4.00;;;;;24.92;45.60;100557.22;5021537;28;45355;-84
2021/07/24 10:24:28;;;;;;;;;5.00;4.00;;;;;24.98;45.37;100562.38;5027852;28;45347;-76
2021/07/24 10:27:13;;;;;;;;;4.75;4.75;;;;;24.98;45.33;100570.31;5028227;28;45307;-79
2021/07/24 10:29:50;;;;;;;;;5.50;4.00;;;;;24.99;45.16;100561.47;5024730;28;45482;-76
2021/07/24 10:32:17;;;;;;;;;4.00;4.00;;;;;25.01;44.06;100567.63;5033139;28;45299;-76
2021/07/24 10:34:50;;;;;;;;;4.00;4.00;;;;;25.04;44.06;100562.28;5028080;28;45252;-85
2021/07/24 10:37:38;;;;;;;;;3.00;3.00;;;;;25.06;43.76;100551.63;5026656;28;45303;-85
2021/07/24 10:40:28;;;;;;;;;4.00;4.00;;;;;25.12;44.52;100547.09;5023245;28;45530;-84
2021/07/24 10:42:55;;;;;;;;;4.00;2.50;;;;;25.24;43.60;100535.34;5020190;28;45292;-76
2021/07/24 10:45:50;;;;;;;;;3.75;3.00;;;;;25.38;43.78;100539.50;5019299;28;45176;-76
2021/07/24 10:48:16;;;;;;;;;3.75;2.75;;;;;25.43;43.13;100532.38;5020968;28;45414;-91
2021/07/24 10:50:54;;;;;;;;;2.75;2.75;;;;;25.48;43.70;100541.94;5039872;28;45305;-86
2021/07/24 10:53:29;;;;;;;;;2.00;2.00;;;;;25.53;43.72;100535.69;5022536;28;45844;-90
2021/07/24 10:55:56;;;;;;;;;7.75;5.25;;;;;25.56;43.20;100530.31;5019667;28;45363;-88
2021/07/24 10:58:26;;;;;;;;;4.00;4.00;;;;;25.57;43.13;100511.72;5021005;28;45591;-84
2021/07/24 11:00:54;;;;;;;;;4.50;4.50;;;;;25.59;43.23;100511.72;5019437;28;45401;-85
2021/07/24 11:03:41;;;;;;;;;4.00;4.00;;;;;25.65;42.63;100523.00;5022380;28;45422;-88
2021/07/24 11:06:21;;;;;;;;;4.25;4.00;;;;;25.68;43.40;100516.78;5025413;28;45365;-78
2021/07/24 11:09:01;;;;;;;;;5.00;3.50;;;;;25.75;42.82;100528.13;5021348;28;45815;-83
2021/07/24 11:11:47;;;;;;;;;3.00;3.00;;;;;25.81;42.74;100520.88;5019136;28;45272;-77
2021/07/24 11:14:35;;;;;;;;;6.00;4.00;;;;;25.99;42.32;100523.13;5026920;28;45333;-90
2021/07/24 11:17:03;;;;;;;;;4.00;3.25;;;;;26.09;41.99;100520.28;5028786;28;45162;-86
2021/07/24 11:19:29;;;;;;;;;6.50;4.25;;;;;26.19;42.00;100534.16;5026754;28;45619;-85
2021/07/24 11:22:17;;;;;;;;;4.00;3.00;;;;;26.23;41.54;100540.31;5032300;28;45415;-83
2021/07/24 11:25:03;;;;;;;;;2.00;1.25;;;;;26.29;41.13;100545.44;5024424;28;45694;-92
2021/07/24 11:27:35;;;;;;;;;6.50;3.75;;;;;26.38;40.46;100531.06;5021646;28;45217;-85
2021/07/24 11:30:07;;;;;;;;;5.00;4.00;;;;;26.48;40.59;100523.72;5026930;28;44888;-87